M I D A S
Marine Information and Data Acquisition System
Tripno 1811 of the Zeeleeuw from 2009-11-20 09:27:40 to 2009-11-20 15:13:05
Back to CruiseResearch ActivitiesStationsMapUnderway DataData graphs

EquipmentUnitsComment
TimeDGPSUTC
LatitudeDGPSDM.mWGS84
LongitudeDGPSDM.mWGS84
TemperatureSBE03/SBE38deg celciusITS90
ConductivitySBE21S/mITS90
SalinitySBE21 Practical Salinity Units
ChlorophylAChelsea fluorimeterg/lCalibrated in Aceton
Missing or incorrect values are displayed as -999
Sea surface data collected by the RV Zeeleeuw from 2009-11-20 09:26:08 to 2009-11-20 15:18:39
Time Latitude Longitude Temperature Conductivity Salinity ChlorophylA
2009-11-20 09:27:16 51°13.678 2°55.886 18.3879 0.039429 0.225385 -1.000568
2009-11-20 09:28:17 51°13.688 2°55.801 18.4102 0.039532 0.226032 -1.000568
2009-11-20 09:29:15 51°13.69 2°55.767 18.4252 0.039635 0.226696 -1.000568
2009-11-20 09:30:14 51°13.694 2°55.767 18.399 0.039532 0.226112 -1.000568
2009-11-20 09:31:13 51°13.706 2°55.75 18.4258 0.039121 0.223755 -1.000568
2009-11-20 09:32:13 51°13.785 2°55.67 18.3871 0.039121 0.223767 -1.000568
2009-11-20 09:33:13 51°13.905 2°55.572 18.3846 0.039018 0.2232 -1.000568
2009-11-20 09:34:13 51°14.042 2°55.47 18.4003 0.038915 0.222632 -1.000568
2009-11-20 09:35:13 51°14.18 2°55.356 18.3783 0.039018 0.223262 -1.000568
2009-11-20 09:36:13 51°14.291 2°55.19 18.2776 0.038092 0.217889 -1.000568
2009-11-20 09:37:13 51°14.398 2°55.01 18.2184 0.0384 0.219719 -1.000568
2009-11-20 09:38:13 51°14.509 2°54.814 18.0708 0.036445 0.208299 -1.000568
2009-11-20 09:39:13 51°14.606 2°54.556 18.0825 0.036239 0.207132 -1.000568
2009-11-20 09:40:13 51°14.697 2°54.287 18.0753 0.036034 0.205977 -1.000568
2009-11-20 09:41:13 51°14.771 2°54.006 18.0544 0.035725 0.204219 -1.000568
2009-11-20 09:42:13 51°14.842 2°53.726 18.0236 0.035519 0.203044 -1.000568
2009-11-20 09:43:13 51°14.912 2°53.443 17.9686 0.035107 0.200673 -1.000568
2009-11-20 09:44:18 51°14.988 2°53.136 17.9539 0.034696 0.198299 -1.000568
2009-11-20 09:45:18 51°15.058 2°52.851 17.9166 0.03449 0.197147 -1.000568
2009-11-20 09:46:18 51°15.128 2°52.564 17.9498 0.034696 0.198379 -1.000568
2009-11-20 09:47:18 51°15.197 2°52.276 17.917 0.034181 0.195429 -1.000568
2009-11-20 09:48:18 51°15.264 2°51.986 17.9232 0.033872 0.193668 -1.000568
2009-11-20 09:49:18 51°15.281 2°51.678 17.8582 0.033667 0.19249 -1.000568
2009-11-20 09:50:18 51°15.267 2°51.362 17.8539 0.033564 0.191928 -1.000568
2009-11-20 09:51:18 51°15.253 2°51.042 17.8252 0.033461 0.191327 -1.000568
2009-11-20 09:52:18 51°15.238 2°50.723 17.8252 0.033358 0.190761 -1.000568
2009-11-20 09:53:18 51°15.212 2°50.408 17.7996 0.033255 0.190269 -1.000568
2009-11-20 09:54:18 51°15.184 2°50.09 17.8077 0.033255 0.190378 -1.000568
2009-11-20 09:55:18 51°15.159 2°49.771 17.7973 0.033152 0.18985 -1.000568
2009-11-20 09:56:18 51°15.134 2°49.453 17.8448 0.033152 0.189874 -1.000568
2009-11-20 09:57:18 51°15.11 2°49.136 17.8096 0.033152 0.190004 -1.000568
2009-11-20 09:58:18 51°15.086 2°48.822 17.7924 0.033049 0.189395 -1.000568
2009-11-20 09:59:18 51°15.062 2°48.507 17.8058 0.033049 0.1895 -1.000568
2009-11-20 10:00:18 51°15.038 2°48.193 17.8189 0.033049 0.189539 -1.000568
2009-11-20 10:01:18 51°15.015 2°47.88 17.8211 0.033049 0.189567 -1.000568
2009-11-20 10:02:18 51°14.991 2°47.568 17.8301 0.032946 0.189052 -1.000568
2009-11-20 10:03:18 51°14.97 2°47.259 17.7926 0.032946 0.189052 -1.000568
2009-11-20 10:04:18 51°14.947 2°46.952 17.8217 0.032946 0.18916 -1.000568
2009-11-20 10:05:18 51°14.919 2°46.648 17.8495 0.032946 0.189181 -1.000568
2009-11-20 10:06:18 51°14.869 2°46.35 17.844 0.032946 0.189269 -1.035392
2009-11-20 10:07:18 51°14.813 2°46.054 17.8758 0.032946 0.189255 -1.000568
2009-11-20 10:08:18 51°14.757 2°45.755 17.854 0.032843 0.188736 -1.000568
2009-11-20 10:09:18 51°14.694 2°45.461 17.8241 0.032843 0.188862 -1.035392
2009-11-20 10:10:18 51°14.615 2°45.177 17.8449 0.032843 0.18883 -1.000568
2009-11-20 10:11:18 51°14.528 2°44.898 17.839 0.032843 0.188883 -1.000568
2009-11-20 10:12:18 51°14.416 2°44.644 17.8304 0.032843 0.188893 -1.000568
2009-11-20 10:13:18 51°14.298 2°44.394 17.8924 0.032843 0.188985 -1.000568
2009-11-20 10:14:18 51°14.182 2°44.143 17.87 0.032843 0.189037 -1.000568
2009-11-20 10:15:18 51°14.065 2°43.892 17.8188 0.032843 0.189097 -1.000568
2009-11-20 10:16:18 51°13.949 2°43.638 17.861 0.032843 0.189125 -1.035392
2009-11-20 10:17:18 51°13.834 2°43.386 17.8586 0.032741 0.188594 -1.035392
2009-11-20 10:18:18 51°13.718 2°43.134 17.8389 0.032741 0.188689 -1.035392
2009-11-20 10:19:18 51°13.602 2°42.883 17.8633 0.032741 0.188742 -1.000568
2009-11-20 10:20:18 51°13.485 2°42.631 17.8882 0.032741 0.188826 -1.000568
2009-11-20 10:21:18 51°13.368 2°42.38 17.8716 0.032741 0.188875 -1.000568
2009-11-20 10:22:18 51°13.252 2°42.128 17.9 0.032741 0.1889 -1.000568
2009-11-20 10:23:18 51°13.136 2°41.877 17.8647 0.032741 0.189017 -1.000568
2009-11-20 10:24:18 51°13.02 2°41.627 17.9264 0.032741 0.18908 -1.035392
2009-11-20 10:25:18 51°12.909 2°41.369 17.9075 0.032741 0.189123 -1.035392
2009-11-20 10:26:18 51°12.804 2°41.106 17.9485 0.032741 0.189169 -1.035392
2009-11-20 10:27:18 51°12.693 2°40.85 17.9117 0.032741 0.189218 -1.035392
2009-11-20 10:28:18 51°12.577 2°40.598 17.9283 0.032638 0.188706 -1.035392
2009-11-20 10:29:18 51°12.463 2°40.343 17.9194 0.032638 0.188724 -1.035392
2009-11-20 10:30:18 51°12.348 2°40.09 17.9517 0.032741 0.189413 -1.000568
2009-11-20 10:31:18 51°12.234 2°39.839 17.9352 0.032638 0.188904 -1.035392
2009-11-20 10:32:18 51°12.12 2°39.586 17.9598 0.032638 0.188893 -1.035392
2009-11-20 10:33:18 51°12.006 2°39.333 18.0134 0.032638 0.188954 -1.035392
2009-11-20 10:34:18 51°11.894 2°39.081 17.9969 0.032638 0.189021 -1.035392
2009-11-20 10:35:18 51°11.779 2°38.832 18.0215 0.032638 0.18906 -1.035392
2009-11-20 10:36:18 51°11.666 2°38.581 18.0848 0.032638 0.189081 -1.035392
2009-11-20 10:37:18 51°11.553 2°38.33 18.0506 0.032638 0.189103 -1.035392
2009-11-20 10:38:18 51°11.439 2°38.079 18.0242 0.032638 0.189159 -1.035392
2009-11-20 10:39:18 51°11.327 2°37.827 18.0329 0.032638 0.189145 -1.035392
2009-11-20 10:40:18 51°11.214 2°37.576 18.0566 0.032638 0.189191 -1.035392
2009-11-20 10:41:18 51°11.101 2°37.325 18.0342 0.032638 0.18922 -1.035392
2009-11-20 10:42:18 51°10.988 2°37.075 18.0819 0.032638 0.18927 -1.035392
2009-11-20 10:43:18 51°10.873 2°36.826 18.0731 0.032638 0.189298 -1.035392
2009-11-20 10:44:18 51°10.755 2°36.584 18.1006 0.032638 0.189288 -1.035392
2009-11-20 10:45:18 51°10.619 2°36.368 18.129 0.032638 0.189295 -1.035392
2009-11-20 10:46:18 51°10.469 2°36.177 18.1005 0.032741 0.189969 -1.035392
2009-11-20 10:47:18 51°10.306 2°36.021 18.1174 0.032741 0.190087 -1.035392
2009-11-20 10:48:18 51°10.13 2°35.904 18.1219 0.033358 0.193805 -1.035392
2009-11-20 10:49:18 51°9.946 2°35.899 18.1111 0.033461 0.194508 -1.035392
2009-11-20 10:50:18 51°9.767 2°35.971 18.1266 0.034078 0.198262 -1.035392
2009-11-20 10:51:18 51°9.637 2°36.039 18.1388 0.035107 0.204499 -1.035392
2009-11-20 10:52:18 51°9.621 2°36.122 18.1543 0.034902 0.203258 -1.035392
2009-11-20 10:53:18 51°9.624 2°36.196 18.1913 0.035107 0.204499 -1.035392
2009-11-20 10:54:18 51°9.622 2°36.262 18.1843 0.035107 0.204546 -1.035392
2009-11-20 10:55:18 51°9.606 2°36.359 18.2259 0.035107 0.204577 -1.035392
2009-11-20 10:56:18 51°9.573 2°36.45 18.2089 0.03521 0.205262 -1.035392
2009-11-20 10:57:18 51°9.543 2°36.524 18.2238 0.03521 0.205278 -1.035392
2009-11-20 10:58:18 51°9.504 2°36.591 18.2671 0.035416 0.206547 -1.035392
2009-11-20 10:59:18 51°9.466 2°36.661 18.234 0.03521 0.205367 -1.035392
2009-11-20 11:00:18 51°9.437 2°36.743 18.3149 0.035313 0.205999 -1.035392
2009-11-20 11:01:18 51°9.413 2°36.828 18.314 0.035313 0.206054 -1.035392
2009-11-20 11:02:18 51°9.391 2°36.915 18.3289 0.035416 0.206681 -1.035392
2009-11-20 11:03:17 51°9.375 2°37.006 18.1668 0.033461 0.195095 -1.035392
2009-11-20 11:04:18 51°9.37 2°37.105 18.4015 0.038195 0.223406 -1.035392
2009-11-20 11:05:18 51°9.383 2°37.203 18.4294 0.03768 0.220341 -1.035392
2009-11-20 11:06:18 51°9.416 2°37.289 18.4572 0.037371 0.218502 -1.000568
2009-11-20 11:07:18 51°9.457 2°37.37 18.4401 0.039533 0.231509 -1.035392
2009-11-20 11:08:18 51°9.496 2°37.453 18.4777 0.040356 0.23652 -1.035392
2009-11-20 11:09:18 51°9.536 2°37.536 18.5117 0.040665 0.238436 -1.035392
2009-11-20 11:10:18 51°9.575 2°37.621 18.5359 0.041076 0.240986 -1.035392
2009-11-20 11:11:18 51°9.613 2°37.706 18.5587 0.041179 0.241628 -1.035392
2009-11-20 11:12:18 51°9.652 2°37.791 18.5839 0.041076 0.241037 -1.035392
2009-11-20 11:13:18 51°9.691 2°37.877 18.6105 0.041076 0.24107 -1.035392
2009-11-20 11:14:18 51°9.729 2°37.962 18.6291 0.041179 0.241702 -1.035392
2009-11-20 11:15:18 51°9.768 2°38.049 18.6525 0.041179 0.241726 -1.035392
2009-11-20 11:16:18 51°9.807 2°38.135 18.6757 0.041282 0.242377 -1.035392
2009-11-20 11:17:18 51°9.847 2°38.222 18.6932 0.041076 0.241154 -1.035392
2009-11-20 11:18:18 51°9.886 2°38.309 18.7073 0.041385 0.243034 -1.035392
2009-11-20 11:19:18 51°9.926 2°38.398 18.7307 0.041076 0.241191 -1.035392
2009-11-20 11:20:18 51°9.966 2°38.486 18.7487 0.041282 0.242452 -1.035392
2009-11-20 11:21:18 51°10.004 2°38.571 18.7708 0.041488 0.243709 -1.035392
2009-11-20 11:22:18 51°10.041 2°38.652 18.7841 0.041488 0.243738 -1.035392
2009-11-20 11:23:18 51°10.078 2°38.733 18.8027 0.041385 0.243133 -1.035392
2009-11-20 11:24:18 51°10.115 2°38.814 18.8188 0.041385 0.243147 -1.035392
2009-11-20 11:25:18 51°10.153 2°38.896 18.8424 0.041282 0.242551 -1.035392
2009-11-20 11:26:18 51°10.19 2°38.978 18.8521 0.041385 0.243184 -1.035392
2009-11-20 11:27:18 51°10.228 2°39.06 18.8702 0.041385 0.243208 -1.035392
2009-11-20 11:28:18 51°10.266 2°39.141 18.8829 0.041282 0.242598 -1.035392
2009-11-20 11:29:18 51°10.305 2°39.224 18.9016 0.041694 0.2451 -1.035392
2009-11-20 11:30:18 51°10.343 2°39.308 18.9205 0.042002 0.246978 -1.035392
2009-11-20 11:31:18 51°10.381 2°39.391 18.9331 0.041694 0.245133 -1.035392
2009-11-20 11:32:18 51°10.415 2°39.48 18.9453 0.041591 0.244518 -1.035392
2009-11-20 11:33:18 51°10.427 2°39.575 18.9683 0.041488 0.243917 -1.035392
2009-11-20 11:34:18 51°10.433 2°39.663 18.9846 0.041694 0.245171 -1.035392
2009-11-20 11:35:18 51°10.431 2°39.745 19.0036 0.041591 0.24457 -1.035392
2009-11-20 11:36:18 51°10.422 2°39.823 19.0097 0.041488 0.243965 -1.035392
2009-11-20 11:37:18 51°10.411 2°39.897 19.0219 0.041179 0.242115 -1.035392
2009-11-20 11:38:18 51°10.406 2°39.951 19.0132 0.041488 0.243979 -1.035392
2009-11-20 11:39:18 51°10.408 2°39.996 19.0401 0.040767 0.239656 -1.035392
2009-11-20 11:40:18 51°10.414 2°40.034 19.062 0.041076 0.241538 -1.035392
2009-11-20 11:41:17 51°10.424 2°40.068 19.0936 0.040973 0.240923 -1.035392
2009-11-20 11:42:18 51°10.439 2°40.104 19.112 0.041385 0.243411 -1.035392
2009-11-20 11:43:18 51°10.456 2°40.14 19.1422 0.041694 0.24529 -1.035392
2009-11-20 11:44:18 51°10.466 2°40.24 19.1459 0.041488 0.244069 -1.035392
2009-11-20 11:45:18 51°10.525 2°40.427 19.1828 0.039635 0.232907 -1.035392
2009-11-20 11:46:18 51°10.651 2°40.655 19.1559 0.039018 0.229148 -1.035392
2009-11-20 11:47:21 51°10.794 2°40.906 19.185 0.038709 0.227299 -1.035392
2009-11-20 11:48:21 51°10.923 2°41.153 19.2053 0.038401 0.225429 -1.035392
2009-11-20 11:49:21 51°11.041 2°41.418 19.2168 0.037371 0.219268 -1.035392
2009-11-20 11:50:21 51°11.157 2°41.684 19.1883 0.037989 0.223008 -1.035392
2009-11-20 11:51:21 51°11.27 2°41.955 19.1867 0.037269 0.218719 -1.035392
2009-11-20 11:52:21 51°11.372 2°42.237 19.1907 0.037063 0.217452 -1.035392
2009-11-20 11:53:21 51°11.457 2°42.536 19.2244 0.039121 0.229838 -1.035392
2009-11-20 11:54:21 51°11.536 2°42.835 19.2921 0.039018 0.229193 -1.035392
2009-11-20 11:55:21 51°11.584 2°43.154 19.2429 0.037371 0.219357 -1.035392
2009-11-20 11:56:21 51°11.596 2°43.482 19.2508 0.038606 0.226765 -1.035392
2009-11-20 11:57:21 51°11.592 2°43.813 19.2429 0.037063 0.217549 -1.035392
2009-11-20 11:58:21 51°11.619 2°44.146 19.2865 0.038298 0.224925 -1.070216
2009-11-20 11:59:21 51°11.66 2°44.476 19.2602 0.037989 0.223081 -1.035392
2009-11-20 12:00:21 51°11.707 2°44.81 19.2729 0.037989 0.223111 -1.035392
2009-11-20 12:01:21 51°11.757 2°45.139 19.2857 0.038298 0.224947 -1.035392
2009-11-20 12:02:21 51°11.806 2°45.471 19.2799 0.037269 0.218774 -1.035392
2009-11-20 12:03:21 51°11.852 2°45.802 19.2827 0.037063 0.217544 -1.035392
2009-11-20 12:04:21 51°11.901 2°46.133 19.3024 0.036754 0.215715 -1.035392
2009-11-20 12:05:21 51°11.95 2°46.464 19.3185 0.037371 0.219412 -1.035392
2009-11-20 12:06:21 51°11.998 2°46.796 19.3259 0.037269 0.218803 -1.035392
2009-11-20 12:07:21 51°12.072 2°47.113 19.3154 0.037063 0.217578 -1.070216
2009-11-20 12:08:21 51°12.166 2°47.417 19.3166 0.036342 0.213275 -1.035392
2009-11-20 12:09:21 51°12.264 2°47.716 19.3483 0.03696 0.216949 -1.035392
2009-11-20 12:10:21 51°12.362 2°48.016 19.3547 0.037166 0.218233 -1.035392
2009-11-20 12:11:21 51°12.459 2°48.318 19.3562 0.036651 0.215145 -1.070216
2009-11-20 12:12:21 51°12.556 2°48.622 19.3398 0.035931 0.210855 -1.035392
2009-11-20 12:13:21 51°12.646 2°48.933 19.3625 0.036651 0.215186 -1.035392
2009-11-20 12:14:21 51°12.733 2°49.249 19.3717 0.036754 0.215828 -1.035392
2009-11-20 12:15:21 51°12.827 2°49.558 19.3909 0.03696 0.217066 -1.070216
2009-11-20 12:16:21 51°12.923 2°49.868 19.384 0.036137 0.212136 -1.035392
2009-11-20 12:17:21 51°13.028 2°50.168 19.4465 0.040459 0.238098 -1.035392
2009-11-20 12:18:21 51°13.13 2°50.469 19.4003 0.036445 0.214027 -1.035392
2009-11-20 12:19:21 51°13.23 2°50.774 18.9914 0.037063 0.217918 -1.035392
2009-11-20 12:20:21 51°13.332 2°51.079 18.929 0.03624 0.213052 -1.035392
2009-11-20 12:21:21 51°13.437 2°51.381 19.0025 0.036239 0.213003 -1.070216
2009-11-20 12:22:21 51°13.545 2°51.68 19.092 0.039944 0.235329 -1.035392
2009-11-20 12:23:21 51°13.65 2°51.979 18.992 0.037886 0.222989 -1.035392
2009-11-20 12:24:21 51°13.76 2°52.279 19.0941 0.037989 0.223599 -1.035392
2009-11-20 12:25:21 51°13.871 2°52.577 19.1229 0.037577 0.221137 -1.035392
2009-11-20 12:26:21 51°13.981 2°52.878 19.1465 0.03768 0.221769 -1.035392
2009-11-20 12:27:21 51°14.096 2°53.175 19.1314 0.036651 0.215589 -1.035392
2009-11-20 12:28:21 51°14.214 2°53.467 19.0849 0.037063 0.218171 -1.035392
2009-11-20 12:29:21 51°14.343 2°53.749 19.1676 0.040562 0.239206 -1.035392
2009-11-20 12:30:21 51°14.476 2°54.027 19.1443 0.036137 0.212595 -1.035392
2009-11-20 12:31:21 51°14.61 2°54.305 19.2061 0.036651 0.21571 -1.035392
2009-11-20 12:32:21 51°14.739 2°54.59 19.199 0.040459 0.238752 -1.035392
2009-11-20 12:33:21 51°14.868 2°54.869 19.1799 0.037063 0.218222 -1.035392
2009-11-20 12:34:21 51°14.999 2°55.151 19.1434 0.035108 0.206482 -1.035392
2009-11-20 12:35:21 51°15.131 2°55.432 19.1665 0.037474 0.220783 -1.035392
2009-11-20 12:36:21 51°15.267 2°55.703 19.2176 0.038915 0.229472 -1.070216
2009-11-20 12:37:21 51°15.403 2°55.97 19.2345 0.037989 0.22392 -1.035392
2009-11-20 12:38:21 51°15.535 2°56.236 19.2631 0.03696 0.217776 -1.035392
2009-11-20 12:39:21 51°15.668 2°56.505 19.3 0.03943 0.232671 -1.035392
2009-11-20 12:40:21 51°15.802 2°56.777 19.3302 0.039738 0.234544 -1.035392
2009-11-20 12:41:21 51°15.937 2°57.045 19.3332 0.036651 0.215948 -1.035392
2009-11-20 12:42:21 51°16.071 2°57.312 19.3528 0.038503 0.227189 -1.070216
2009-11-20 12:43:21 51°16.206 2°57.581 19.3886 0.037783 0.222789 -1.070216
2009-11-20 12:44:21 51°16.342 2°57.851 19.4069 0.036651 0.215982 -1.035392
2009-11-20 12:45:21 51°16.479 2°58.123 19.4381 0.036754 0.216576 -1.035392
2009-11-20 12:46:21 51°16.615 2°58.396 19.4716 0.039224 0.231505 -1.035392
2009-11-20 12:47:21 51°16.752 2°58.673 19.4551 0.036445 0.214727 -1.035392
2009-11-20 12:48:37 51°16.929 2°59.02 19.5259 0.037474 0.220899 -1.070216
2009-11-20 12:49:36 51°17.062 2°59.294 19.523 0.037269 0.219655 -1.035392
2009-11-20 12:50:37 51°17.203 2°59.575 19.5362 0.041694 0.246358 -1.035392
2009-11-20 12:51:37 51°17.34 2°59.852 19.5458 0.037783 0.222754 -1.035392
2009-11-20 12:52:37 51°17.478 3°0.134 19.5797 0.037372 0.220266 -1.035392
2009-11-20 12:53:37 51°17.619 3°0.417 19.6134 0.037783 0.222724 -1.035392
2009-11-20 12:54:37 51°17.759 3°0.699 19.6158 0.035725 0.210312 -1.035392
2009-11-20 12:55:37 51°17.9 3°0.977 19.6598 0.041385 0.244423 -1.035392
2009-11-20 12:56:36 51°18.034 3°1.249 19.6506 0.038092 0.224584 -1.035392
2009-11-20 12:57:37 51°18.176 3°1.529 19.6466 0.03768 0.222113 -1.035392
2009-11-20 12:58:37 51°18.315 3°1.804 19.6673 0.035108 0.206613 -1.035392
2009-11-20 12:59:37 51°18.454 3°2.074 19.7121 0.037269 0.21963 -1.035392
2009-11-20 13:00:37 51°18.589 3°2.347 19.7424 0.038092 0.224593 -1.035392
2009-11-20 13:01:37 51°18.722 3°2.616 19.7074 0.036857 0.217123 -1.035392
2009-11-20 13:02:37 51°18.858 3°2.883 19.7411 0.035931 0.211797 -1.035392
2009-11-20 13:03:37 51°18.994 3°3.149 19.7325 0.03624 0.213775 -1.035392
2009-11-20 13:04:37 51°19.129 3°3.423 19.7449 0.035416 0.208712 -1.035392
2009-11-20 13:05:37 51°19.271 3°3.693 19.8026 0.038606 0.227929 -1.035392
2009-11-20 13:06:37 51°19.409 3°3.969 19.8132 0.038503 0.227299 -1.035392
2009-11-20 13:07:37 51°19.534 3°4.227 19.7946 0.036445 0.214935 -1.035392
2009-11-20 13:08:37 51°19.601 3°4.393 17.0078 0.035828 0.21117 -0.965744
2009-11-20 13:09:37 51°19.634 3°4.519 19.1476 0.033976 0.199973 -0.93092
2009-11-20 13:10:37 51°19.651 3°4.649 18.8941 0.03696 0.21811 -0.93092
2009-11-20 13:11:37 51°19.647 3°4.805 19.0022 0.03696 0.217966 -0.896096
2009-11-20 13:12:37 51°19.638 3°4.922 19.0469 0.03624 0.213634 -0.861272
2009-11-20 13:13:37 51°19.635 3°5.033 19.1252 0.03624 0.213601 -0.826448
2009-11-20 13:14:37 51°19.643 3°5.146 19.2098 0.03624 0.213494 -0.826448
2009-11-20 13:15:37 51°19.655 3°5.266 19.1781 0.035108 0.206661 -0.791624
2009-11-20 13:16:37 51°19.676 3°5.393 19.2564 0.034696 0.204164 -0.7568
2009-11-20 13:17:37 51°19.694 3°5.508 19.3446 0.035313 0.20786 -0.721976
2009-11-20 13:18:37 51°19.711 3°5.615 19.316 0.035416 0.208486 -0.721976
2009-11-20 13:19:37 51°19.73 3°5.718 19.3869 0.035622 0.209714 -0.721976
2009-11-20 13:20:37 51°19.75 3°5.818 19.4201 0.035108 0.206621 -0.687152
2009-11-20 13:21:37 51°19.772 3°5.919 19.4577 0.03449 0.202859 -0.652328
2009-11-20 13:22:37 51°19.796 3°6.02 19.4855 0.035416 0.208422 -0.652328
2009-11-20 13:23:37 51°19.819 3°6.123 19.5491 0.034284 0.201595 -0.652328
2009-11-20 13:24:37 51°19.845 3°6.227 19.5581 0.034696 0.204034 -0.617504
2009-11-20 13:25:37 51°19.869 3°6.33 19.5952 0.03521 0.207103 -0.617504
2009-11-20 13:26:37 51°19.889 3°6.437 19.6099 0.034284 0.201474 -0.617504
2009-11-20 13:27:37 51°19.911 3°6.549 19.645 0.034902 0.205181 -0.58268
2009-11-20 13:28:37 51°19.93 3°6.665 19.6678 0.035005 0.205801 -0.58268
2009-11-20 13:29:37 51°19.947 3°6.781 19.6964 0.034696 0.203896 -0.547855
2009-11-20 13:30:37 51°19.968 3°6.899 19.7263 0.034696 0.203877 -0.58268
2009-11-20 13:31:37 51°19.985 3°7.017 19.7469 0.035313 0.207536 -0.547855
2009-11-20 13:32:37 51°20.001 3°7.132 19.7711 0.035725 0.210011 -0.547855
2009-11-20 13:33:37 51°20.021 3°7.246 19.7911 0.035828 0.210604 -0.547855
2009-11-20 13:34:36 51°20.041 3°7.358 19.8183 0.035005 0.205635 -0.513031
2009-11-20 13:35:37 51°20.068 3°7.476 19.8383 0.03521 0.206867 -0.513031
2009-11-20 13:36:36 51°20.094 3°7.587 19.8584 0.03449 0.202496 -0.513031
2009-11-20 13:37:37 51°20.122 3°7.701 19.8885 0.033873 0.198748 -0.513031
2009-11-20 13:38:37 51°20.146 3°7.812 19.9021 0.034593 0.203022 -0.513031
2009-11-20 13:39:37 51°20.169 3°7.921 19.9161 0.033667 0.197458 -0.513031
2009-11-20 13:40:37 51°20.196 3°8.03 19.9373 0.035005 0.205465 -0.513031
2009-11-20 13:41:37 51°20.22 3°8.139 19.9426 0.034593 0.202976 -0.478207
2009-11-20 13:42:37 51°20.248 3°8.249 19.9646 0.034902 0.204802 -0.478207
2009-11-20 13:43:36 51°20.272 3°8.356 19.9932 0.034696 0.203607 -0.513031
2009-11-20 13:44:37 51°20.296 3°8.466 20.0046 0.035005 0.205425 -0.478207
2009-11-20 13:45:37 51°20.321 3°8.575 20.0069 0.034284 0.201042 -0.478207
2009-11-20 13:46:37 51°20.327 3°8.671 20.0313 0.036342 0.21339 -0.478207
2009-11-20 13:47:37 51°20.338 3°8.769 20.0469 0.034593 0.202839 -0.478207
2009-11-20 13:48:37 51°20.349 3°8.864 20.0477 0.034696 0.20347 -0.478207
2009-11-20 13:49:37 51°20.352 3°8.946 20.0616 0.035725 0.209591 -0.478207
2009-11-20 13:50:36 51°20.361 3°9.014 20.0797 0.03696 0.217049 -0.478207
2009-11-20 13:51:38 51°20.376 3°9.072 20.1 0.035622 0.208899 -0.478207
2009-11-20 13:52:37 51°20.393 3°9.119 20.1058 0.037063 0.217628 -0.478207
2009-11-20 13:53:38 51°20.4 3°9.189 20.1263 0.037371 0.21945 -0.478207
2009-11-20 13:54:37 51°20.447 3°9.29 20.0404 0.034181 0.200408 -0.478207
2009-11-20 13:55:37 51°20.521 3°9.278 20.0983 0.032844 0.192387 -0.478207
2009-11-20 13:56:37 51°20.56 3°9.159 20.1165 0.032638 0.191114 -0.478207
2009-11-20 13:57:37 51°20.549 3°8.966 20.1316 0.032535 0.190505 -0.478207
2009-11-20 13:58:37 51°20.498 3°8.741 20.1466 0.032844 0.192523 -0.478207
2009-11-20 13:59:37 51°20.423 3°8.533 20.161 0.033152 0.194238 -0.478207
2009-11-20 14:00:37 51°20.359 3°8.319 20.1759 0.032844 0.192417 -0.478207
2009-11-20 14:01:37 51°20.298 3°8.104 20.1895 0.032741 0.191807 -0.478207
2009-11-20 14:02:37 51°20.239 3°7.875 20.2052 0.032638 0.191161 -0.478207
2009-11-20 14:03:37 51°20.183 3°7.643 20.2187 0.032946 0.192978 -0.478207
2009-11-20 14:04:37 51°20.124 3°7.414 20.2274 0.032844 0.192332 -0.478207
2009-11-20 14:05:37 51°20.064 3°7.192 20.243 0.032741 0.191686 -0.478207
2009-11-20 14:06:37 51°20.02 3°6.977 20.2354 0.033255 0.19477 -0.478207
2009-11-20 14:07:37 51°19.938 3°6.789 20.2394 0.032844 0.192362 -0.478207
2009-11-20 14:08:37 51°19.85 3°6.601 20.2564 0.034593 0.202867 -0.478207
2009-11-20 14:09:37 51°19.774 3°6.405 20.2693 0.032844 0.192384 -0.478207
2009-11-20 14:10:37 51°19.699 3°6.199 20.2835 0.032638 0.191128 -0.478207
2009-11-20 14:11:37 51°19.626 3°5.994 20.296 0.032638 0.191121 -0.478207
2009-11-20 14:12:37 51°19.552 3°5.789 20.3119 0.032638 0.191136 -0.478207
2009-11-20 14:13:37 51°19.477 3°5.585 20.323 0.032535 0.190479 -0.443383
2009-11-20 14:14:37 51°19.407 3°5.376 20.3353 0.032638 0.191088 -0.478207
2009-11-20 14:15:37 51°19.333 3°5.17 20.3459 0.032844 0.192284 -0.478207
2009-11-20 14:16:37 51°19.258 3°4.973 20.3624 0.032535 0.190461 -0.478207
2009-11-20 14:17:37 51°19.184 3°4.776 20.3674 0.032638 0.191136 -0.478207
2009-11-20 14:18:37 51°19.112 3°4.569 20.3754 0.032535 0.190468 -0.478207
2009-11-20 14:19:37 51°19.036 3°4.361 20.3906 0.032432 0.189827 -0.478207
2009-11-20 14:20:37 51°18.956 3°4.162 20.4008 0.032535 0.190447 -0.478207
2009-11-20 14:21:37 51°18.873 3°3.965 20.413 0.032741 0.191657 -0.443383
2009-11-20 14:22:37 51°18.794 3°3.77 20.4218 0.033152 0.19419 -0.443383
2009-11-20 14:23:37 51°18.714 3°3.573 20.4255 0.032535 0.190443 -0.478207
2009-11-20 14:24:37 51°18.633 3°3.374 20.4374 0.032535 0.190447 -0.478207
2009-11-20 14:25:37 51°18.554 3°3.169 20.4532 0.032432 0.189813 -0.443383
2009-11-20 14:26:37 51°18.48 3°2.958 20.4577 0.032432 0.189827 -0.443383
2009-11-20 14:27:37 51°18.405 3°2.752 20.4608 0.032329 0.1892 -0.478207
2009-11-20 14:28:37 51°18.33 3°2.544 20.4753 0.032329 0.189193 -0.443383
2009-11-20 14:29:37 51°18.254 3°2.337 20.4879 0.032741 0.191738 -0.478207
2009-11-20 14:30:37 51°18.175 3°2.129 20.4937 0.032329 0.189204 -0.478207
2009-11-20 14:31:37 51°18.099 3°1.918 20.5017 0.032329 0.1892 -0.443383
2009-11-20 14:32:37 51°18.02 3°1.702 20.5132 0.032329 0.189218 -0.443383
2009-11-20 14:33:37 51°17.943 3°1.49 20.5262 0.032329 0.189189 -0.478207
2009-11-20 14:34:37 51°17.866 3°1.279 20.5336 0.032432 0.18982 -0.478207
2009-11-20 14:35:37 51°17.789 3°1.065 20.5429 0.032432 0.189805 -0.478207
2009-11-20 14:36:37 51°17.712 3°0.848 20.5473 0.032432 0.189798 -0.443383
2009-11-20 14:37:37 51°17.634 3°0.63 20.5621 0.032329 0.189146 -0.478207
2009-11-20 14:38:37 51°17.553 3°0.42 20.5649 0.032329 0.189157 -0.443383
2009-11-20 14:39:37 51°17.472 3°0.207 20.5734 0.032329 0.189168 -0.443383
2009-11-20 14:40:37 51°17.392 2°59.992 20.5795 0.032329 0.189139 -0.478207
2009-11-20 14:41:37 51°17.31 2°59.775 20.5843 0.032329 0.189139 -0.443383
2009-11-20 14:42:37 51°17.231 2°59.554 20.5996 0.032432 0.189751 -0.478207
2009-11-20 14:43:37 51°17.151 2°59.334 18.1442 0.034799 0.203999 -0.443383
2009-11-20 14:44:37 51°17.07 2°59.115 18.2103 0.032844 0.192299 -0.443383
2009-11-20 14:45:37 51°16.991 2°58.893 17.1428 0.034902 0.204613 -0.443383
2009-11-20 14:46:37 51°16.913 2°58.67 17.2344 0.032638 0.191001 -0.443383
2009-11-20 14:47:37 51°16.834 2°58.454 17.4173 0.032535 0.190439 -0.443383
2009-11-20 14:48:37 51°16.753 2°58.236 17.5461 0.032226 0.188545 -0.443383
2009-11-20 14:49:37 51°16.674 2°58.015 17.715 0.032329 0.189189 -0.443383
2009-11-20 14:50:37 51°16.594 2°57.795 17.9112 0.032226 0.188552 -0.443383
2009-11-20 14:51:37 51°16.514 2°57.572 17.9442 0.032123 0.187951 -0.443383
2009-11-20 14:52:49 51°16.418 2°57.305 18.0492 0.032329 0.189215 -0.443383
2009-11-20 14:53:49 51°16.335 2°57.087 18.4317 0.032226 0.188606 -0.443383
2009-11-20 14:54:49 51°16.255 2°56.863 18.7686 0.032226 0.188606 -0.443383
2009-11-20 14:55:49 51°16.178 2°56.637 18.7155 0.032329 0.189233 -0.443383
2009-11-20 14:56:49 51°16.099 2°56.412 18.8174 0.032329 0.189197 -0.443383
2009-11-20 14:57:49 51°16.019 2°56.188 18.9663 0.032329 0.189197 -0.443383
2009-11-20 14:58:49 51°15.94 2°55.965 19.0328 0.032329 0.189254 -0.443383
2009-11-20 14:59:49 51°15.852 2°55.751 19.0273 0.032535 0.190567 -0.443383
2009-11-20 15:00:49 51°15.741 2°55.563 19.1662 0.032329 0.189262 -0.443383
2009-11-20 15:01:49 51°15.623 2°55.383 19.2169 0.032329 0.189229 -0.443383
2009-11-20 15:02:49 51°15.504 2°55.208 19.167 0.032432 0.189878 -0.443383
2009-11-20 15:03:49 51°15.374 2°55.059 19.2984 0.032741 0.191785 -0.443383
2009-11-20 15:04:49 51°15.22 2°54.979 19.3734 0.033358 0.195532 -0.443383
2009-11-20 15:05:49 51°15.059 2°54.927 19.3346 0.033152 0.194283 -0.443383
2009-11-20 15:06:49 51°14.899 2°54.878 19.4631 0.034078 0.199847 -0.443383
2009-11-20 15:07:49 51°14.738 2°54.849 19.5061 0.033358 0.195514 -0.443383
2009-11-20 15:08:49 51°14.575 2°54.885 19.5356 0.036342 0.213485 -0.443383
2009-11-20 15:09:49 51°14.42 2°54.998 19.6055 0.036548 0.214665 -0.443383
2009-11-20 15:10:49 51°14.294 2°55.188 19.6043 0.035725 0.209708 -0.443383
2009-11-20 15:11:49 51°14.184 2°55.357 19.6112 0.035622 0.209096 -0.443383
2009-11-20 15:12:49 51°14.06 2°55.461 19.5915 0.035931 0.210985 -0.443383
2009-11-20 15:13:49 51°13.946 2°55.543 19.5943 0.036754 0.215949 -0.443383
2009-11-20 15:14:53 51°13.831 2°55.627 19.6204 0.036548 0.214706 -0.443383
2009-11-20 15:15:53 51°13.755 2°55.71 19.625 0.037371 0.219666 -0.443383
2009-11-20 15:16:53 51°13.706 2°55.807 19.6417 0.037371 0.219649 -0.443383
2009-11-20 15:17:53 51°13.674 2°55.9 19.6502 0.037989 0.223374 -0.443383